createdAt,value
2018-07-12T00:01:07.567Z,18.20
2018-07-12T00:03:33.802Z,18.20
2018-07-12T00:06:00.327Z,18.40
2018-07-12T00:08:26.664Z,18.40
2018-07-12T00:10:53.019Z,18.30
2018-07-12T00:13:19.251Z,18.30
2018-07-12T00:15:45.601Z,18.40
2018-07-12T00:18:11.839Z,18.40
2018-07-12T00:20:38.119Z,18.50
2018-07-12T00:23:04.362Z,18.40
2018-07-12T00:25:30.590Z,18.40
2018-07-12T00:27:56.847Z,18.30
2018-07-12T00:30:23.096Z,18.40
2018-07-12T00:32:49.487Z,18.40
2018-07-12T00:35:15.716Z,18.40
2018-07-12T00:37:41.954Z,18.50
2018-07-12T00:40:08.198Z,18.50
2018-07-12T00:42:34.441Z,18.50
2018-07-12T00:45:00.679Z,18.50
2018-07-12T00:47:27.143Z,18.50
2018-07-12T00:49:53.381Z,18.50
2018-07-12T00:52:19.626Z,18.40
2018-07-12T00:54:45.859Z,18.30
2018-07-12T00:57:12.719Z,18.30
2018-07-12T00:59:39.279Z,18.20
2018-07-12T01:02:05.715Z,18.10
2018-07-12T01:04:32.078Z,18.00
2018-07-12T01:06:58.299Z,18.20
2018-07-12T01:09:24.642Z,18.20
2018-07-12T01:11:50.876Z,18.10
2018-07-12T01:14:17.143Z,18.20
2018-07-12T01:16:43.374Z,18.10
2018-07-12T01:19:09.618Z,18.20
2018-07-12T01:21:35.873Z,18.20
2018-07-12T01:24:02.187Z,18.20
2018-07-12T01:26:28.427Z,18.20
2018-07-12T01:28:54.677Z,18.20
2018-07-12T01:31:20.914Z,18.30
2018-07-12T01:33:47.216Z,18.40
2018-07-12T01:36:13.464Z,18.40
2018-07-12T01:38:39.716Z,18.30
2018-07-12T01:41:06.062Z,18.20
2018-07-12T01:43:32.338Z,18.10
2018-07-12T01:45:58.576Z,18.10
2018-07-12T01:48:24.823Z,18.10
2018-07-12T01:50:51.057Z,18.00
2018-07-12T01:53:17.289Z,18.10
2018-07-12T01:55:43.539Z,18.20
2018-07-12T01:58:09.790Z,18.10
2018-07-12T02:00:36.170Z,18.10
2018-07-12T02:03:02.375Z,18.10
2018-07-12T02:05:28.627Z,18.10
2018-07-12T02:07:54.854Z,18.10
2018-07-12T02:10:21.382Z,18.00
2018-07-12T02:12:47.622Z,18.00
2018-07-12T02:15:13.867Z,18.00
2018-07-12T02:17:40.107Z,18.00
2018-07-12T02:20:06.379Z,18.00
2018-07-12T02:22:32.623Z,18.00
2018-07-12T02:24:58.891Z,17.90
2018-07-12T02:27:25.267Z,17.90
2018-07-12T02:29:51.515Z,17.80
2018-07-12T02:32:17.761Z,17.90
2018-07-12T02:34:44.009Z,18.00
2018-07-12T02:37:10.243Z,18.00
2018-07-12T02:39:36.499Z,18.00
2018-07-12T02:42:02.739Z,18.00
2018-07-12T02:44:28.983Z,17.90
2018-07-12T02:46:55.220Z,17.80
2018-07-12T02:49:21.481Z,17.90
2018-07-12T02:51:47.728Z,17.80
2018-07-12T02:54:14.021Z,17.80
2018-07-12T02:56:40.294Z,17.90
2018-07-12T02:59:06.527Z,17.90
2018-07-12T03:01:32.772Z,18.00
2018-07-12T03:03:59.007Z,17.90
2018-07-12T03:06:25.443Z,17.80
2018-07-12T03:08:51.676Z,17.80
2018-07-12T03:11:17.942Z,17.80
2018-07-12T03:13:44.170Z,17.80
2018-07-12T03:16:10.475Z,17.80
2018-07-12T03:18:36.932Z,17.90
2018-07-12T03:21:03.239Z,17.90
2018-07-12T03:23:29.570Z,17.90
2018-07-12T03:28:22.562Z,17.70
2018-07-12T03:30:49.073Z,17.70
2018-07-12T03:33:15.307Z,17.80
2018-07-12T03:35:41.539Z,17.80
2018-07-12T03:38:07.798Z,17.80
2018-07-12T03:40:34.121Z,17.80
2018-07-12T03:43:00.303Z,17.70
2018-07-12T03:45:26.548Z,17.70
2018-07-12T03:47:52.795Z,17.70
2018-07-12T03:50:19.034Z,17.70
2018-07-12T03:52:45.687Z,17.80
2018-07-12T03:57:38.946Z,17.80
2018-07-12T04:00:05.175Z,17.70
2018-07-12T04:02:31.434Z,17.80
2018-07-12T04:04:57.671Z,17.80
2018-07-12T04:07:23.915Z,17.80
2018-07-12T04:09:50.455Z,17.80
2018-07-12T04:12:16.703Z,17.70
2018-07-12T04:14:42.943Z,17.70
2018-07-12T04:17:09.172Z,17.80
2018-07-12T04:19:35.424Z,17.80
2018-07-12T04:22:01.672Z,17.80
2018-07-12T04:24:27.921Z,17.80
2018-07-12T04:26:54.322Z,17.70
2018-07-12T04:29:20.578Z,17.70
2018-07-12T04:31:46.815Z,17.70
2018-07-12T04:34:13.111Z,17.80
2018-07-12T04:36:39.367Z,17.80
2018-07-12T04:39:05.879Z,17.90
2018-07-12T04:41:32.499Z,17.90
2018-07-12T04:43:58.742Z,17.90
2018-07-12T04:46:24.972Z,17.90
2018-07-12T04:48:51.215Z,17.80
2018-07-12T04:51:17.493Z,17.90
2018-07-12T04:53:44.167Z,17.90
2018-07-12T04:56:10.415Z,18.00
2018-07-12T04:58:36.669Z,18.00
2018-07-12T05:01:02.954Z,18.00
2018-07-12T05:03:29.199Z,17.90
2018-07-12T05:05:55.447Z,17.90
2018-07-12T05:08:21.683Z,17.90
2018-07-12T05:10:47.931Z,18.10
2018-07-12T05:13:14.164Z,18.10
2018-07-12T05:15:40.411Z,18.10
2018-07-12T05:18:06.664Z,18.20
2018-07-12T05:20:32.931Z,18.20
2018-07-12T05:22:59.179Z,18.30
2018-07-12T05:25:25.424Z,18.30
2018-07-12T05:27:51.707Z,18.30
2018-07-12T05:30:18.051Z,18.30
2018-07-12T05:32:44.291Z,18.20
2018-07-12T05:35:10.555Z,18.20
2018-07-12T05:37:37.707Z,18.20
2018-07-12T05:40:04.904Z,18.20
2018-07-12T05:42:32.054Z,18.20
2018-07-12T05:44:59.211Z,18.30
2018-07-12T05:47:26.377Z,18.40
2018-07-12T05:49:53.514Z,18.40
2018-07-12T05:52:20.675Z,18.40
2018-07-12T05:54:47.839Z,18.40
2018-07-12T05:57:15.019Z,18.50
2018-07-12T05:59:42.228Z,18.50
2018-07-12T06:02:17.422Z,18.60
2018-07-12T06:04:44.730Z,18.60
2018-07-12T06:07:12.828Z,18.60
2018-07-12T06:09:40.000Z,18.60
2018-07-12T06:12:07.171Z,18.50
2018-07-12T06:14:34.358Z,18.50
2018-07-12T06:17:01.688Z,18.40
2018-07-12T06:19:28.776Z,18.40
2018-07-12T06:21:55.960Z,18.40
2018-07-12T06:24:23.295Z,18.50
2018-07-12T06:26:50.486Z,18.60
2018-07-12T06:29:17.678Z,18.80
2018-07-12T06:31:44.859Z,19.10
2018-07-12T06:34:12.027Z,19.30
2018-07-12T06:36:39.167Z,19.40
2018-07-12T06:39:07.506Z,19.70
2018-07-12T06:41:34.686Z,19.70
2018-07-12T06:44:01.890Z,19.70
2018-07-12T06:46:29.091Z,19.70
2018-07-12T06:48:56.273Z,19.70
2018-07-12T06:51:23.447Z,19.50
2018-07-12T06:53:50.606Z,19.40
2018-07-12T06:56:17.755Z,19.40
2018-07-12T06:58:45.043Z,19.30
2018-07-12T07:01:12.256Z,19.30
2018-07-12T07:03:39.447Z,19.40
2018-07-12T07:06:06.630Z,19.40
2018-07-12T07:08:33.820Z,19.50
2018-07-12T07:11:01.023Z,19.50
2018-07-12T07:13:28.184Z,19.60
2018-07-12T07:15:55.348Z,19.50
2018-07-12T07:18:22.515Z,19.50
2018-07-12T07:20:50.187Z,19.50
2018-07-12T07:23:17.415Z,19.50
2018-07-12T07:25:44.835Z,19.50
2018-07-12T07:28:12.095Z,19.40
2018-07-12T07:30:39.320Z,19.50
2018-07-12T07:33:06.576Z,19.80
2018-07-12T07:35:33.788Z,20.10
2018-07-12T07:38:00.917Z,20.30
2018-07-12T07:40:28.103Z,20.30
2018-07-12T07:42:55.284Z,20.30
2018-07-12T07:45:22.466Z,20.30
2018-07-12T07:47:49.619Z,20.30
2018-07-12T07:50:16.796Z,20.30
2018-07-12T07:52:44.022Z,20.40
2018-07-12T07:55:11.256Z,20.50
2018-07-12T07:57:38.459Z,20.70
2018-07-12T08:00:05.751Z,21.20
2018-07-12T08:02:32.928Z,21.70
2018-07-12T08:05:00.219Z,22.30
2018-07-12T08:07:34.067Z,22.70
2018-07-12T08:10:01.367Z,23.00
2018-07-12T08:12:28.551Z,23.20
2018-07-12T08:17:23.090Z,23.70
2018-07-12T08:19:50.308Z,24.30
2018-07-12T08:22:17.491Z,24.20
2018-07-12T08:24:44.767Z,23.90
2018-07-12T08:27:11.986Z,23.90
2018-07-12T08:29:39.266Z,24.10
2018-07-12T08:32:06.480Z,24.50
2018-07-12T08:34:33.711Z,24.30
2018-07-12T08:37:00.969Z,24.10
2018-07-12T08:44:22.680Z,23.50
2018-07-12T08:46:49.923Z,23.30
2018-07-12T08:49:17.574Z,23.10
2018-07-12T08:51:45.027Z,22.90
2018-07-12T08:54:12.316Z,22.80
2018-07-12T08:56:39.864Z,23.10
2018-07-12T08:59:07.068Z,23.60
2018-07-12T09:01:34.316Z,24.00
2018-07-12T09:04:01.573Z,24.10
2018-07-12T09:06:28.756Z,24.50
2018-07-12T09:08:55.939Z,24.40
2018-07-12T09:11:23.175Z,24.20
2018-07-12T09:13:50.369Z,23.80
2018-07-12T09:16:17.607Z,23.50
2018-07-12T09:18:44.951Z,23.30
2018-07-12T09:21:12.115Z,23.60
2018-07-12T09:23:39.385Z,23.90
2018-07-12T09:26:06.574Z,24.10
2018-07-12T09:28:33.735Z,24.50
2018-07-12T09:31:00.886Z,24.80
2018-07-12T09:33:28.086Z,25.10
2018-07-12T09:35:55.236Z,25.30
2018-07-12T09:38:34.843Z,25.90
2018-07-12T09:41:01.995Z,25.90
2018-07-12T09:43:29.615Z,25.60
2018-07-12T09:45:56.759Z,25.10
2018-07-12T09:48:23.955Z,24.70
2018-07-12T09:50:51.246Z,24.50
2018-07-12T09:53:18.426Z,24.20
2018-07-12T09:55:45.668Z,24.90
2018-07-12T09:58:22.698Z,26.30
2018-07-12T10:00:55.649Z,27.70
2018-07-12T10:03:22.920Z,27.60
2018-07-12T10:05:55.860Z,26.70
2018-07-12T10:08:28.811Z,25.90
2018-07-12T10:11:01.720Z,25.30
2018-07-12T10:13:34.831Z,25.10
2018-07-12T10:16:02.927Z,25.00
2018-07-12T10:18:30.735Z,25.00
2018-07-12T10:20:58.122Z,24.80
2018-07-12T10:23:25.459Z,24.60
2018-07-12T10:25:52.647Z,25.20
2018-07-12T10:28:19.823Z,25.80
2018-07-12T10:30:47.772Z,27.20
2018-07-12T10:33:15.119Z,27.40
2018-07-12T10:35:42.283Z,27.10
2018-07-12T10:38:09.440Z,26.60
2018-07-12T10:40:36.635Z,25.90
2018-07-12T10:43:03.903Z,25.60
2018-07-12T10:45:31.079Z,25.20
2018-07-12T10:47:58.235Z,24.90
2018-07-12T10:50:25.409Z,24.80
2018-07-12T10:52:52.579Z,25.50
2018-07-12T10:55:19.740Z,25.70
2018-07-12T11:00:14.111Z,27.60
2018-07-12T11:02:41.291Z,28.20
2018-07-12T11:05:08.463Z,28.10
2018-07-12T11:07:35.612Z,27.70
2018-07-12T11:10:02.914Z,27.70
2018-07-12T11:12:29.998Z,28.60
2018-07-12T11:14:57.178Z,29.50
2018-07-12T11:17:24.359Z,30.40
2018-07-12T11:19:51.542Z,30.20
2018-07-12T11:22:18.695Z,29.90
2018-07-12T11:24:45.858Z,29.20
2018-07-12T11:27:13.102Z,28.50
2018-07-12T11:29:49.403Z,28.60
2018-07-12T11:32:16.749Z,28.80
2018-07-12T11:34:43.912Z,28.60
2018-07-12T11:37:17.019Z,28.10
2018-07-12T11:39:44.171Z,28.80
2018-07-12T11:42:11.342Z,29.70
2018-07-12T11:44:38.557Z,30.10
2018-07-12T11:47:05.706Z,30.30
2018-07-12T11:49:32.891Z,30.70
2018-07-12T11:52:00.040Z,30.60
2018-07-12T11:54:27.285Z,30.00
2018-07-12T11:56:54.447Z,29.10
2018-07-12T11:59:21.635Z,28.20
2018-07-12T12:01:48.845Z,27.10
2018-07-12T12:06:43.135Z,26.00
2018-07-12T12:11:37.485Z,27.10
2018-07-12T12:14:04.655Z,27.90
2018-07-12T12:16:31.814Z,28.70
2018-07-12T12:18:58.966Z,29.30
2018-07-12T12:21:26.123Z,29.70
2018-07-12T12:23:53.277Z,30.10
2018-07-12T12:26:20.457Z,29.90
2018-07-12T12:28:47.620Z,29.30
2018-07-12T12:31:14.786Z,28.50
2018-07-12T12:33:41.949Z,27.60
2018-07-12T12:36:09.147Z,26.70
2018-07-12T12:38:36.291Z,26.20
2018-07-12T12:41:03.448Z,25.90
2018-07-12T12:43:30.597Z,26.30
2018-07-12T12:45:57.769Z,26.80
2018-07-12T12:48:24.911Z,27.00
2018-07-12T12:50:52.107Z,27.50
2018-07-12T12:53:19.245Z,28.00
2018-07-12T12:55:46.419Z,28.30
2018-07-12T12:58:13.578Z,28.60
2018-07-12T13:00:40.757Z,28.80
2018-07-12T13:03:07.899Z,28.70
2018-07-12T13:05:35.116Z,28.20
2018-07-12T13:08:02.325Z,27.20
2018-07-12T13:10:29.482Z,26.60
2018-07-12T13:12:56.630Z,26.20
2018-07-12T13:15:24.049Z,25.70
2018-07-12T13:17:51.209Z,25.60
2018-07-12T13:20:18.371Z,26.20
2018-07-12T13:22:45.520Z,26.80
2018-07-12T13:25:12.708Z,27.40
2018-07-12T13:27:39.877Z,27.90
2018-07-12T13:30:07.035Z,28.20
2018-07-12T13:32:34.189Z,28.00
2018-07-12T13:35:01.348Z,27.70
2018-07-12T13:37:28.561Z,27.60
2018-07-12T13:39:55.721Z,27.30
2018-07-12T13:42:22.883Z,27.00
2018-07-12T13:44:50.048Z,27.20
2018-07-12T13:47:17.207Z,27.40
2018-07-12T13:49:44.375Z,27.60
2018-07-12T13:52:11.592Z,27.80
2018-07-12T13:54:38.741Z,28.10
2018-07-12T13:57:05.903Z,28.40
2018-07-12T13:59:33.062Z,28.60
2018-07-12T14:02:00.245Z,28.70
2018-07-12T14:04:27.432Z,28.50
2018-07-12T14:06:54.595Z,28.40
2018-07-12T14:09:21.771Z,28.20
2018-07-12T14:11:48.956Z,27.90
2018-07-12T14:14:16.149Z,27.70
2018-07-12T14:16:43.328Z,27.50
2018-07-12T14:19:10.562Z,27.20
2018-07-12T14:21:37.667Z,26.90
2018-07-12T14:24:04.819Z,27.00
2018-07-12T14:26:31.994Z,26.90
2018-07-12T14:28:59.143Z,26.80
2018-07-12T14:31:26.333Z,26.70
2018-07-12T14:33:53.500Z,26.90
2018-07-12T14:36:20.719Z,27.00
2018-07-12T14:38:47.923Z,27.00
2018-07-12T14:41:15.161Z,27.00
2018-07-12T14:43:42.355Z,27.00
2018-07-12T14:46:09.888Z,27.10
2018-07-12T14:48:37.056Z,27.00
2018-07-12T14:51:04.218Z,26.90
2018-07-12T14:53:31.383Z,26.90
2018-07-12T14:55:58.564Z,26.90
2018-07-12T14:58:25.730Z,26.90
2018-07-12T15:00:53.276Z,26.90
2018-07-12T15:03:20.455Z,27.00
2018-07-12T15:05:47.625Z,26.80
2018-07-12T15:08:14.813Z,26.70
2018-07-12T15:10:42.004Z,26.60
2018-07-12T15:13:09.176Z,26.60
2018-07-12T15:15:36.344Z,26.60
2018-07-12T15:18:03.514Z,26.40
2018-07-12T15:20:30.663Z,26.40
2018-07-12T15:22:57.829Z,26.30
2018-07-12T15:25:24.991Z,26.20
2018-07-12T15:27:52.271Z,26.30
2018-07-12T15:30:19.328Z,26.30
2018-07-12T15:32:46.485Z,26.30
2018-07-12T15:35:13.626Z,26.20
2018-07-12T15:37:40.791Z,26.10
2018-07-12T15:40:07.958Z,26.10
2018-07-12T15:42:35.345Z,26.00
2018-07-12T15:45:02.571Z,25.90
2018-07-12T15:47:29.832Z,25.80
2018-07-12T15:49:56.972Z,25.80
2018-07-12T15:52:24.162Z,25.70
2018-07-12T15:54:51.298Z,25.70
2018-07-12T15:57:18.595Z,25.70
2018-07-12T15:59:45.745Z,25.60
2018-07-12T16:02:12.983Z,25.50
2018-07-12T16:04:40.126Z,25.50
2018-07-12T16:07:07.339Z,25.50
2018-07-12T16:09:34.542Z,25.50
2018-07-12T16:12:01.724Z,25.50
2018-07-12T16:14:28.882Z,25.40
2018-07-12T16:19:23.232Z,25.40
2018-07-12T16:21:50.724Z,25.50
2018-07-12T16:24:17.919Z,25.40
2018-07-12T16:26:45.125Z,25.40
2018-07-12T16:31:39.443Z,25.30
2018-07-12T16:34:06.815Z,25.20
2018-07-12T16:36:33.970Z,25.20
2018-07-12T16:39:01.130Z,25.20
2018-07-12T16:41:28.326Z,25.10
2018-07-12T16:43:55.576Z,25.10
2018-07-12T16:46:22.737Z,25.10
2018-07-12T16:51:17.090Z,25.00
2018-07-12T16:53:44.287Z,25.10
2018-07-12T16:56:11.463Z,25.10
2018-07-12T16:58:38.623Z,25.10
2018-07-12T17:01:05.877Z,25.00
2018-07-12T17:03:33.344Z,25.10
2018-07-12T17:06:00.532Z,24.90
2018-07-12T17:08:27.716Z,24.90
2018-07-12T17:10:54.887Z,24.90
2018-07-12T17:13:22.082Z,24.80
2018-07-12T17:15:49.286Z,24.70
2018-07-12T17:18:16.457Z,24.60
2018-07-12T17:23:10.903Z,24.50
2018-07-12T17:25:38.075Z,24.40
2018-07-12T17:28:05.254Z,24.30
2018-07-12T17:32:59.579Z,24.30
2018-07-12T17:35:26.740Z,24.30
2018-07-12T17:37:53.907Z,24.30
2018-07-12T17:40:21.090Z,24.30
2018-07-12T17:42:48.250Z,24.30
2018-07-12T17:45:15.402Z,24.40
2018-07-12T17:47:42.881Z,24.30
2018-07-12T17:50:09.979Z,24.20
2018-07-12T17:52:37.150Z,24.20
2018-07-12T17:55:04.313Z,24.20
2018-07-12T17:57:31.493Z,24.10
2018-07-12T17:59:58.656Z,24.00
2018-07-12T18:02:25.819Z,24.00
2018-07-12T18:04:52.989Z,24.00
2018-07-12T18:07:20.183Z,23.90
2018-07-12T18:09:47.332Z,23.80
2018-07-12T18:12:14.713Z,23.70
2018-07-12T18:14:42.073Z,23.70
2018-07-12T18:17:09.239Z,23.60
2018-07-12T18:19:36.397Z,23.60
2018-07-12T18:22:03.844Z,23.50
2018-07-12T18:24:30.994Z,23.50
2018-07-12T18:26:58.164Z,23.40
2018-07-12T18:29:25.366Z,23.40
2018-07-12T18:31:52.629Z,23.30
2018-07-12T18:34:19.847Z,23.30
2018-07-12T18:36:47.256Z,23.20
2018-07-12T18:39:14.445Z,23.10
2018-07-12T18:41:41.694Z,23.00
2018-07-12T18:44:09.368Z,22.90
2018-07-12T18:46:36.540Z,22.80
2018-07-12T18:49:03.897Z,22.80
2018-07-12T18:51:31.038Z,22.70
2018-07-12T18:53:58.262Z,22.70
2018-07-12T18:56:25.583Z,22.60
2018-07-12T18:58:52.747Z,22.50
2018-07-12T19:01:19.922Z,22.50
2018-07-12T19:03:47.079Z,22.40
2018-07-12T19:06:14.247Z,22.40
2018-07-12T19:08:41.456Z,22.30
2018-07-12T19:11:09.061Z,22.30
2018-07-12T19:13:36.480Z,22.20
2018-07-12T19:16:04.228Z,22.20
2018-07-12T19:18:31.933Z,22.10
2018-07-12T19:20:59.163Z,22.10
2018-07-12T19:23:26.324Z,22.00
2018-07-12T19:25:54.327Z,22.00
2018-07-12T19:30:48.949Z,21.90
2018-07-12T19:33:16.113Z,21.90
2018-07-12T19:35:43.273Z,21.90
2018-07-12T19:38:10.478Z,21.80
2018-07-12T19:40:37.720Z,21.70
2018-07-12T19:45:32.454Z,21.70
2018-07-12T19:47:59.692Z,21.70
2018-07-12T19:50:26.947Z,21.80
2018-07-12T19:52:54.262Z,21.80
2018-07-12T19:55:21.468Z,21.80
2018-07-12T19:57:48.675Z,21.80
2018-07-12T20:00:15.843Z,21.70
2018-07-12T20:02:43.072Z,21.70
2018-07-12T20:05:10.256Z,21.70
2018-07-12T20:10:04.792Z,21.60
2018-07-12T20:12:32.027Z,21.70
2018-07-12T20:14:59.308Z,21.70
2018-07-12T20:17:26.463Z,21.70
2018-07-12T20:19:53.638Z,21.80
2018-07-12T20:22:20.884Z,21.70
2018-07-12T20:24:48.272Z,21.80
2018-07-12T20:27:15.529Z,21.90
2018-07-12T20:29:42.959Z,22.00
2018-07-12T20:32:10.138Z,22.00
2018-07-12T20:34:37.302Z,22.00
2018-07-12T20:37:04.604Z,22.00
2018-07-12T20:39:31.852Z,22.00
2018-07-12T20:41:59.132Z,22.20
2018-07-12T20:44:27.410Z,22.10
2018-07-12T20:46:54.568Z,22.10
2018-07-12T20:49:21.850Z,22.10
2018-07-12T20:51:49.030Z,22.00
2018-07-12T20:54:16.364Z,21.80
2018-07-12T20:56:43.623Z,21.60
2018-07-12T20:59:10.813Z,21.60
2018-07-12T21:01:37.962Z,21.50
2018-07-12T21:04:05.302Z,21.50
2018-07-12T21:06:32.791Z,21.40
2018-07-12T21:09:00.043Z,21.50
2018-07-12T21:11:27.338Z,21.30
2018-07-12T21:13:54.582Z,21.20
2018-07-12T21:16:21.739Z,21.00
2018-07-12T21:18:48.915Z,21.00
2018-07-12T21:21:16.058Z,21.00
2018-07-12T21:23:43.277Z,21.00
2018-07-12T21:26:10.383Z,20.90
2018-07-12T21:28:37.548Z,21.00
2018-07-12T21:31:04.728Z,21.00
2018-07-12T21:33:32.100Z,21.00
2018-07-12T21:35:59.294Z,21.00
2018-07-12T21:38:26.508Z,20.90
2018-07-12T21:40:53.775Z,20.90
2018-07-12T21:43:20.934Z,20.90
2018-07-12T21:45:48.187Z,20.90
2018-07-12T21:48:15.428Z,20.80
2018-07-12T21:50:42.595Z,20.80
2018-07-12T21:53:09.751Z,20.70
2018-07-12T21:55:37.239Z,20.70
2018-07-12T21:58:04.395Z,20.50
2018-07-12T22:00:32.629Z,20.40
2018-07-12T22:03:00.147Z,20.40
2018-07-12T22:05:27.258Z,20.30
2018-07-12T22:08:07.397Z,20.40
2018-07-12T22:10:34.675Z,20.40
2018-07-12T22:13:01.823Z,20.30
2018-07-12T22:15:29.172Z,20.30
2018-07-12T22:17:56.343Z,20.10
2018-07-12T22:20:23.509Z,20.20
2018-07-12T22:22:50.696Z,20.10
2018-07-12T22:25:17.854Z,20.10
2018-07-12T22:27:45.003Z,20.10
2018-07-12T22:30:12.317Z,20.20
2018-07-12T22:32:39.520Z,20.20
2018-07-12T22:35:06.703Z,20.20
2018-07-12T22:37:33.855Z,20.10
2018-07-12T22:40:01.025Z,20.00
2018-07-12T22:42:28.320Z,20.00
2018-07-12T22:44:55.563Z,20.00
2018-07-12T22:47:22.719Z,20.10
2018-07-12T22:49:49.932Z,20.10
2018-07-12T22:52:19.807Z,19.90
2018-07-12T22:54:47.156Z,19.80
2018-07-12T22:57:14.317Z,19.80
2018-07-12T22:59:41.520Z,19.80
2018-07-12T23:02:08.701Z,20.00
2018-07-12T23:04:36.293Z,20.00
2018-07-12T23:07:03.443Z,19.90
2018-07-12T23:09:30.610Z,19.80
2018-07-12T23:11:57.884Z,19.80
2018-07-12T23:14:25.078Z,19.90
2018-07-12T23:16:52.219Z,20.00
2018-07-12T23:19:19.390Z,20.00
2018-07-12T23:21:46.572Z,20.00
2018-07-12T23:24:14.245Z,20.00
2018-07-12T23:26:41.407Z,19.80
2018-07-12T23:29:08.556Z,19.90
2018-07-12T23:31:35.741Z,19.90
2018-07-12T23:34:02.945Z,19.90
2018-07-12T23:38:57.283Z,19.90
2018-07-12T23:41:24.511Z,19.80
2018-07-12T23:43:51.729Z,19.70
2018-07-12T23:48:46.181Z,19.60
2018-07-12T23:51:13.546Z,19.50
2018-07-12T23:53:40.704Z,19.40
2018-07-12T23:56:07.965Z,19.30
2018-07-12T23:58:35.143Z,19.20
